sensor_id;sensor_type;location;lat;lon;timestamp;pressure;altitude;pressure_sealevel;temperature;humidity
80128;BME280;69440;52.118;5.408;2023-05-07T00:01:16;101773.03;;;15.28;86.42
80128;BME280;69440;52.118;5.408;2023-05-07T00:03:44;101780.28;;;15.28;86.25
80128;BME280;69440;52.118;5.408;2023-05-07T00:06:12;101788.63;;;15.25;86.31
80128;BME280;69440;52.118;5.408;2023-05-07T00:08:38;101797.63;;;15.25;86.93
80128;BME280;69440;52.118;5.408;2023-05-07T00:11:05;101793.16;;;15.24;86.60
80128;BME280;69440;52.118;5.408;2023-05-07T00:13:31;101785.44;;;15.18;85.78
80128;BME280;69440;52.118;5.408;2023-05-07T00:16:02;101794.81;;;15.12;86.65
80128;BME280;69440;52.118;5.408;2023-05-07T00:18:29;101788.91;;;15.06;86.84
80128;BME280;69440;52.118;5.408;2023-05-07T00:20:55;101793.66;;;15.02;86.46
80128;BME280;69440;52.118;5.408;2023-05-07T00:23:22;101790.75;;;15.05;86.78
80128;BME280;69440;52.118;5.408;2023-05-07T00:25:49;101791.81;;;15.03;86.18
80128;BME280;69440;52.118;5.408;2023-05-07T00:28:15;101786.75;;;14.97;86.25
80128;BME280;69440;52.118;5.408;2023-05-07T00:30:42;101782.31;;;14.96;86.96
80128;BME280;69440;52.118;5.408;2023-05-07T00:33:08;101773.31;;;14.95;86.87
80128;BME280;69440;52.118;5.408;2023-05-07T00:35:35;101776.22;;;14.92;87.07
80128;BME280;69440;52.118;5.408;2023-05-07T00:38:01;101771.59;;;14.94;87.02
80128;BME280;69440;52.118;5.408;2023-05-07T00:40:27;101768.97;;;14.93;86.95
80128;BME280;69440;52.118;5.408;2023-05-07T00:42:54;101772.53;;;14.93;87.35
80128;BME280;69440;52.118;5.408;2023-05-07T00:45:26;101766.25;;;14.93;87.10
80128;BME280;69440;52.118;5.408;2023-05-07T00:47:55;101768.97;;;14.93;86.95
80128;BME280;69440;52.118;5.408;2023-05-07T00:50:21;101768.09;;;14.92;87.10
80128;BME280;69440;52.118;5.408;2023-05-07T00:52:48;101770.91;;;14.90;87.17
80128;BME280;69440;52.118;5.408;2023-05-07T00:55:15;101772.75;;;14.90;86.91
80128;BME280;69440;52.118;5.408;2023-05-07T00:57:41;101766.38;;;14.91;87.25
80128;BME280;69440;52.118;5.408;2023-05-07T01:00:09;101759.41;;;14.87;86.71
80128;BME280;69440;52.118;5.408;2023-05-07T01:02:36;101764.53;;;14.91;87.22
80128;BME280;69440;52.118;5.408;2023-05-07T01:05:04;101759.88;;;14.94;87.31
80128;BME280;69440;52.118;5.408;2023-05-07T01:07:33;101758.16;;;14.93;87.36
80128;BME280;69440;52.118;5.408;2023-05-07T01:10:02;101760.84;;;14.93;87.72
80128;BME280;69440;52.118;5.408;2023-05-07T01:12:30;101763.75;;;14.89;87.37
80128;BME280;69440;52.118;5.408;2023-05-07T01:14:57;101761.91;;;14.90;87.26
80128;BME280;69440;52.118;5.408;2023-05-07T01:17:24;101763.94;;;14.86;86.98
80128;BME280;69440;52.118;5.408;2023-05-07T01:19:51;101763.84;;;14.88;87.36
80128;BME280;69440;52.118;5.408;2023-05-07T01:22:45;101765.50;;;14.90;87.09
80128;BME280;69440;52.118;5.408;2023-05-07T01:25:12;101769.06;;;14.91;86.98
80128;BME280;69440;52.118;5.408;2023-05-07T01:27:39;101759.97;;;14.92;87.41
80128;BME280;69440;52.118;5.408;2023-05-07T01:30:06;101760.28;;;14.87;87.18
80128;BME280;69440;52.118;5.408;2023-05-07T01:32:44;101761.03;;;14.89;87.54
80128;BME280;69440;52.118;5.408;2023-05-07T01:35:16;101763.94;;;14.86;87.28
80128;BME280;69440;52.118;5.408;2023-05-07T01:37:44;101765.41;;;14.92;86.83
80128;BME280;69440;52.118;5.408;2023-05-07T01:40:11;101768.38;;;14.87;87.33
80128;BME280;69440;52.118;5.408;2023-05-07T01:42:38;101764.81;;;14.87;87.19
80128;BME280;69440;52.118;5.408;2023-05-07T01:45:06;101770.22;;;14.87;87.71
80128;BME280;69440;52.118;5.408;2023-05-07T01:47:33;101760.47;;;14.84;87.47
80128;BME280;69440;52.118;5.408;2023-05-07T01:50:00;101763.28;;;14.83;87.69
80128;BME280;69440;52.118;5.408;2023-05-07T01:52:27;101768.78;;;14.81;87.89
80128;BME280;69440;52.118;5.408;2023-05-07T01:54:54;101766.56;;;14.74;87.61
80128;BME280;69440;52.118;5.408;2023-05-07T01:57:20;101759.97;;;14.78;87.63
80128;BME280;69440;52.118;5.408;2023-05-07T01:59:47;101770.63;;;14.81;88.16
80128;BME280;69440;52.118;5.408;2023-05-07T02:02:13;101770.53;;;14.82;87.95
80128;BME280;69440;52.118;5.408;2023-05-07T02:04:40;101761.63;;;14.80;87.32
80128;BME280;69440;52.118;5.408;2023-05-07T02:07:06;101765.50;;;14.76;87.29
80128;BME280;69440;52.118;5.408;2023-05-07T02:09:33;101766.25;;;14.78;87.92
80128;BME280;69440;52.118;5.408;2023-05-07T02:11:59;101763.66;;;14.77;87.71
80128;BME280;69440;52.118;5.408;2023-05-07T02:14:25;101769.25;;;14.74;87.85
80128;BME280;69440;52.118;5.408;2023-05-07T02:16:52;101765.69;;;14.73;88.22
80128;BME280;69440;52.118;5.408;2023-05-07T02:19:18;101759.22;;;14.76;87.68
80128;BME280;69440;52.118;5.408;2023-05-07T02:21:47;101761.91;;;14.76;87.38
80128;BME280;69440;52.118;5.408;2023-05-07T02:24:14;101766.56;;;14.74;87.93
80128;BME280;69440;52.118;5.408;2023-05-07T02:26:40;101761.13;;;14.74;87.57
80128;BME280;69440;52.118;5.408;2023-05-07T02:29:07;101757.91;;;14.67;87.81
80128;BME280;69440;52.118;5.408;2023-05-07T02:31:33;101767.38;;;14.60;87.96
80128;BME280;69440;52.118;5.408;2023-05-07T02:34:00;101764.09;;;14.55;88.34
80128;BME280;69440;52.118;5.408;2023-05-07T02:36:27;101765.53;;;14.60;88.76
80128;BME280;69440;52.118;5.408;2023-05-07T02:38:53;101759.94;;;14.64;88.81
80128;BME280;69440;52.118;5.408;2023-05-07T02:41:20;101757.81;;;14.69;88.51
80128;BME280;69440;52.118;5.408;2023-05-07T02:43:47;101760.28;;;14.73;89.25
80128;BME280;69440;52.118;5.408;2023-05-07T02:46:13;101753.88;;;14.74;88.99
80128;BME280;69440;52.118;5.408;2023-05-07T02:48:40;101753.78;;;14.76;88.95
80128;BME280;69440;52.118;5.408;2023-05-07T02:51:06;101746.75;;;14.73;89.39
80128;BME280;69440;52.118;5.408;2023-05-07T02:53:33;101755.63;;;14.75;89.16
80128;BME280;69440;52.118;5.408;2023-05-07T02:56:00;101749.44;;;14.73;88.96
80128;BME280;69440;52.118;5.408;2023-05-07T02:58:27;101750.94;;;14.63;88.47
80128;BME280;69440;52.118;5.408;2023-05-07T03:00:54;101760.81;;;14.64;88.11
80128;BME280;69440;52.118;5.408;2023-05-07T03:03:23;101760.22;;;14.59;88.21
80128;BME280;69440;52.118;5.408;2023-05-07T03:05:50;101762.66;;;14.64;88.62
80128;BME280;69440;52.118;5.408;2023-05-07T03:08:16;101759.75;;;14.67;88.62
80128;BME280;69440;52.118;5.408;2023-05-07T03:10:43;101757.91;;;14.67;89.38
80128;BME280;69440;52.118;5.408;2023-05-07T03:13:09;101750.66;;;14.68;89.95
80128;BME280;69440;52.118;5.408;2023-05-07T03:15:35;101752.69;;;14.64;90.09
80128;BME280;69440;52.118;5.408;2023-05-07T03:18:02;101759.34;;;14.58;89.52
80128;BME280;69440;52.118;5.408;2023-05-07T03:20:29;101755.00;;;14.56;89.04
80128;BME280;69440;52.118;5.408;2023-05-07T03:22:56;101749.69;;;14.54;89.35
80128;BME280;69440;52.118;5.408;2023-05-07T03:25:22;101749.00;;;14.51;89.39
80128;BME280;69440;52.118;5.408;2023-05-07T03:27:49;101741.09;;;14.48;88.85
80128;BME280;69440;52.118;5.408;2023-05-07T03:30:15;101751.31;;;14.43;88.96
80128;BME280;69440;52.118;5.408;2023-05-07T03:32:42;101751.13;;;14.46;89.58
80128;BME280;69440;52.118;5.408;2023-05-07T03:35:08;101750.06;;;14.48;89.28
80128;BME280;69440;52.118;5.408;2023-05-07T03:37:37;101747.56;;;14.45;89.20
80128;BME280;69440;52.118;5.408;2023-05-07T03:40:05;101748.75;;;14.40;89.41
80128;BME280;69440;52.118;5.408;2023-05-07T03:42:31;101748.25;;;14.33;89.15
80128;BME280;69440;52.118;5.408;2023-05-07T03:44:57;101750.66;;;14.38;89.55
80128;BME280;69440;52.118;5.408;2023-05-07T03:47:24;101759.50;;;14.41;89.78
80128;BME280;69440;52.118;5.408;2023-05-07T03:49:50;101749.53;;;14.42;89.20
80128;BME280;69440;52.118;5.408;2023-05-07T03:52:19;101759.66;;;14.38;89.20
80128;BME280;69440;52.118;5.408;2023-05-07T03:54:49;101756.72;;;14.43;89.35
80128;BME280;69440;52.118;5.408;2023-05-07T03:57:16;101761.94;;;14.46;88.67
80128;BME280;69440;52.118;5.408;2023-05-07T03:59:42;101758.28;;;14.47;89.98
80128;BME280;69440;52.118;5.408;2023-05-07T04:02:09;101760.03;;;14.48;88.84
80128;BME280;69440;52.118;5.408;2023-05-07T04:04:35;101758.09;;;14.50;89.38
80128;BME280;69440;52.118;5.408;2023-05-07T04:07:01;101760.59;;;14.53;89.22
80128;BME280;69440;52.118;5.408;2023-05-07T04:09:29;101767.84;;;14.52;89.30
80128;BME280;69440;52.118;5.408;2023-05-07T04:11:55;101766.97;;;14.52;89.59
80128;BME280;69440;52.118;5.408;2023-05-07T04:14:22;101774.13;;;14.53;89.42
80128;BME280;69440;52.118;5.408;2023-05-07T04:16:48;101766.78;;;14.55;89.46
80128;BME280;69440;52.118;5.408;2023-05-07T04:19:15;101774.91;;;14.55;89.24
80128;BME280;69440;52.118;5.408;2023-05-07T04:21:41;101770.38;;;14.55;89.23
80128;BME280;69440;52.118;5.408;2023-05-07T04:24:07;101775.88;;;14.54;89.53
80128;BME280;69440;52.118;5.408;2023-05-07T04:26:34;101768.72;;;14.53;89.43
80128;BME280;69440;52.118;5.408;2023-05-07T04:29:00;101766.78;;;14.55;88.62
80128;BME280;69440;52.118;5.408;2023-05-07T04:31:27;101778.47;;;14.55;89.02
80128;BME280;69440;52.118;5.408;2023-05-07T04:33:54;101779.53;;;14.53;88.70
80128;BME280;69440;52.118;5.408;2023-05-07T04:36:20;101772.09;;;14.56;89.06
80128;BME280;69440;52.118;5.408;2023-05-07T04:38:47;101782.75;;;14.59;89.30
80128;BME280;69440;52.118;5.408;2023-05-07T04:41:13;101780.03;;;14.59;88.50
80128;BME280;69440;52.118;5.408;2023-05-07T04:43:40;101772.69;;;14.62;88.98
80128;BME280;69440;52.118;5.408;2023-05-07T04:46:07;101775.31;;;14.63;88.78
80128;BME280;69440;52.118;5.408;2023-05-07T04:48:34;101781.69;;;14.62;89.03
80128;BME280;69440;52.118;5.408;2023-05-07T04:51:00;101779.75;;;14.64;89.27
80128;BME280;69440;52.118;5.408;2023-05-07T04:53:27;101783.41;;;14.63;88.97
80128;BME280;69440;52.118;5.408;2023-05-07T04:55:57;101786.22;;;14.62;88.94
80128;BME280;69440;52.118;5.408;2023-05-07T04:58:24;101791.53;;;14.63;88.66
80128;BME280;69440;52.118;5.408;2023-05-07T05:00:50;101795.22;;;14.62;88.66
80128;BME280;69440;52.118;5.408;2023-05-07T05:03:16;101791.91;;;14.57;88.21
80128;BME280;69440;52.118;5.408;2023-05-07T05:05:43;101791.41;;;14.50;87.72
80128;BME280;69440;52.118;5.408;2023-05-07T05:08:10;101790.56;;;14.50;88.16
80128;BME280;69440;52.118;5.408;2023-05-07T05:10:36;101790.56;;;14.50;87.85
80128;BME280;69440;52.118;5.408;2023-05-07T05:13:03;101789.50;;;14.52;88.15
80128;BME280;69440;52.118;5.408;2023-05-07T05:15:29;101795.69;;;14.54;88.11
80128;BME280;69440;52.118;5.408;2023-05-07T05:17:59;101797.63;;;14.52;87.73
80128;BME280;69440;52.118;5.408;2023-05-07T05:20:25;101797.31;;;14.57;87.81
80128;BME280;69440;52.118;5.408;2023-05-07T05:22:52;101803.78;;;14.54;87.26
80128;BME280;69440;52.118;5.408;2023-05-07T05:25:18;101801.28;;;14.51;87.32
80128;BME280;69440;52.118;5.408;2023-05-07T05:27:45;101798.47;;;14.53;87.58
80128;BME280;69440;52.118;5.408;2023-05-07T05:30:11;101797.22;;;14.58;87.90
80128;BME280;69440;52.118;5.408;2023-05-07T05:32:39;101800.63;;;14.62;87.89
80128;BME280;69440;52.118;5.408;2023-05-07T05:35:05;101805.06;;;14.63;87.67
80128;BME280;69440;52.118;5.408;2023-05-07T05:37:32;101812.41;;;14.61;87.54
80128;BME280;69440;52.118;5.408;2023-05-07T05:39:58;101806.13;;;14.60;87.46
80128;BME280;69440;52.118;5.408;2023-05-07T05:42:25;101811.34;;;14.64;87.83
80128;BME280;69440;52.118;5.408;2023-05-07T05:44:51;101816.47;;;14.68;88.66
80128;BME280;69440;52.118;5.408;2023-05-07T05:47:17;101821.75;;;14.71;87.55
80128;BME280;69440;52.118;5.408;2023-05-07T05:49:44;101824.25;;;14.74;87.94
80128;BME280;69440;52.118;5.408;2023-05-07T05:52:12;101833.25;;;14.75;87.36
80128;BME280;69440;52.118;5.408;2023-05-07T05:54:39;101831.31;;;14.77;87.60
80128;BME280;69440;52.118;5.408;2023-05-07T05:57:05;101831.03;;;14.81;87.74
80128;BME280;69440;52.118;5.408;2023-05-07T05:59:32;101838.97;;;14.84;87.82
80128;BME280;69440;52.118;5.408;2023-05-07T06:01:58;101842.63;;;14.83;88.10
80128;BME280;69440;52.118;5.408;2023-05-07T06:04:25;101837.22;;;14.83;87.74
80128;BME280;69440;52.118;5.408;2023-05-07T06:06:51;101840.78;;;14.84;87.75
80128;BME280;69440;52.118;5.408;2023-05-07T06:09:18;101845.44;;;14.82;87.59
80128;BME280;69440;52.118;5.408;2023-05-07T06:11:44;101850.84;;;14.82;88.01
80128;BME280;69440;52.118;5.408;2023-05-07T06:14:11;101844.56;;;14.81;87.52
80128;BME280;69440;52.118;5.408;2023-05-07T06:16:37;101848.16;;;14.82;87.58
80128;BME280;69440;52.118;5.408;2023-05-07T06:19:04;101854.34;;;14.84;87.60
80128;BME280;69440;52.118;5.408;2023-05-07T06:21:30;101845.16;;;14.86;88.06
80128;BME280;69440;52.118;5.408;2023-05-07T06:23:57;101849.69;;;14.86;87.52
80128;BME280;69440;52.118;5.408;2023-05-07T06:26:24;101846.03;;;14.87;88.38
80128;BME280;69440;52.118;5.408;2023-05-07T06:28:51;101842.34;;;14.88;88.21
80128;BME280;69440;52.118;5.408;2023-05-07T06:31:19;101850.28;;;14.91;88.25
80128;BME280;69440;52.118;5.408;2023-05-07T06:33:47;101849.50;;;14.89;88.14
80128;BME280;69440;52.118;5.408;2023-05-07T06:36:14;101847.47;;;14.93;88.59
80128;BME280;69440;52.118;5.408;2023-05-07T06:38:41;101841.09;;;14.94;88.40
80128;BME280;69440;52.118;5.408;2023-05-07T06:41:07;101850.97;;;14.95;88.65
80128;BME280;69440;52.118;5.408;2023-05-07T06:43:33;101859.09;;;14.95;88.67
80128;BME280;69440;52.118;5.408;2023-05-07T06:46:00;101852.69;;;14.96;89.37
80128;BME280;69440;52.118;5.408;2023-05-07T06:48:27;101857.94;;;14.99;88.73
80128;BME280;69440;52.118;5.408;2023-05-07T06:50:53;101851.53;;;15.00;88.88
80128;BME280;69440;52.118;5.408;2023-05-07T06:53:21;101848.69;;;15.03;89.34
80128;BME280;69440;52.118;5.408;2023-05-07T06:55:48;101846.66;;;15.06;89.18
80128;BME280;69440;52.118;5.408;2023-05-07T06:58:14;101847.34;;;15.10;89.15
80128;BME280;69440;52.118;5.408;2023-05-07T07:00:41;101855.16;;;15.14;88.98
80128;BME280;69440;52.118;5.408;2023-05-07T07:03:07;101852.25;;;15.17;88.47
80128;BME280;69440;52.118;5.408;2023-05-07T07:05:34;101852.94;;;15.21;88.82
80128;BME280;69440;52.118;5.408;2023-05-07T07:08:00;101853.44;;;15.28;89.07
80128;BME280;69440;52.118;5.408;2023-05-07T07:10:27;101849.38;;;15.35;88.88
80128;BME280;69440;52.118;5.408;2023-05-07T07:12:53;101858.00;;;15.41;89.08
80128;BME280;69440;52.118;5.408;2023-05-07T07:15:20;101858.38;;;15.49;88.55
80128;BME280;69440;52.118;5.408;2023-05-07T07:17:51;101859.72;;;15.57;88.98
80128;BME280;69440;52.118;5.408;2023-05-07T07:20:17;101848.72;;;15.60;87.85
80128;BME280;69440;52.118;5.408;2023-05-07T07:22:44;101846.22;;;15.71;87.61
80128;BME280;69440;52.118;5.408;2023-05-07T07:25:10;101852.31;;;15.74;87.35
80128;BME280;69440;52.118;5.408;2023-05-07T07:27:38;101854.41;;;15.83;87.13
80128;BME280;69440;52.118;5.408;2023-05-07T07:30:06;101851.19;;;15.91;86.44
80128;BME280;69440;52.118;5.408;2023-05-07T07:32:33;101843.91;;;16.06;86.77
80128;BME280;69440;52.118;5.408;2023-05-07T07:34:59;101847.75;;;16.16;86.35
80128;BME280;69440;52.118;5.408;2023-05-07T07:37:26;101854.13;;;16.29;85.83
80128;BME280;69440;52.118;5.408;2023-05-07T07:39:52;101851.34;;;16.43;86.08
80128;BME280;69440;52.118;5.408;2023-05-07T07:42:18;101854.13;;;16.56;84.81
80128;BME280;69440;52.118;5.408;2023-05-07T07:44:45;101853.59;;;16.64;84.38
80128;BME280;69440;52.118;5.408;2023-05-07T07:47:11;101861.88;;;16.75;83.90
80128;BME280;69440;52.118;5.408;2023-05-07T07:49:38;101865.84;;;16.84;84.03
80128;BME280;69440;52.118;5.408;2023-05-07T07:52:07;101863.78;;;16.87;84.41
80128;BME280;69440;52.118;5.408;2023-05-07T07:54:33;101872.47;;;16.92;83.82
80128;BME280;69440;52.118;5.408;2023-05-07T07:57:00;101865.84;;;16.96;83.83
80128;BME280;69440;52.118;5.408;2023-05-07T07:59:27;101862.28;;;16.96;83.50
80128;BME280;69440;52.118;5.408;2023-05-07T08:01:54;101861.72;;;16.91;82.87
80128;BME280;69440;52.118;5.408;2023-05-07T08:04:23;101868.25;;;16.88;82.97
80128;BME280;69440;52.118;5.408;2023-05-07T08:06:49;101870.81;;;16.77;83.15
80128;BME280;69440;52.118;5.408;2023-05-07T08:09:15;101873.28;;;16.67;83.49
80128;BME280;69440;52.118;5.408;2023-05-07T08:11:42;101875.63;;;16.59;83.97
80128;BME280;69440;52.118;5.408;2023-05-07T08:14:08;101883.22;;;16.54;83.48
80128;BME280;69440;52.118;5.408;2023-05-07T08:16:35;101870.69;;;16.52;84.00
80128;BME280;69440;52.118;5.408;2023-05-07T08:19:01;101879.69;;;16.52;84.43
80128;BME280;69440;52.118;5.408;2023-05-07T08:21:28;101881.66;;;16.50;85.25
80128;BME280;69440;52.118;5.408;2023-05-07T08:23:54;101877.28;;;16.48;84.88
80128;BME280;69440;52.118;5.408;2023-05-07T08:26:20;101875.13;;;16.53;85.92
80128;BME280;69440;52.118;5.408;2023-05-07T08:28:47;101875.72;;;16.58;86.03
80128;BME280;69440;52.118;5.408;2023-05-07T08:31:13;101880.84;;;16.62;85.66
80128;BME280;69440;52.118;5.408;2023-05-07T08:33:40;101876.97;;;16.66;85.47
80128;BME280;69440;52.118;5.408;2023-05-07T08:36:06;101881.22;;;16.70;85.70
80128;BME280;69440;52.118;5.408;2023-05-07T08:38:33;101879.59;;;16.68;84.82
80128;BME280;69440;52.118;5.408;2023-05-07T08:40:59;101875.41;;;16.62;84.03
80128;BME280;69440;52.118;5.408;2023-05-07T08:43:27;101879.47;;;16.69;85.02
80128;BME280;69440;52.118;5.408;2023-05-07T08:45:54;101872.09;;;16.71;85.44
80128;BME280;69440;52.118;5.408;2023-05-07T08:48:24;101876.13;;;16.79;85.83
80128;BME280;69440;52.118;5.408;2023-05-07T08:50:51;101875.91;;;16.82;85.16
80128;BME280;69440;52.118;5.408;2023-05-07T08:53:19;101878.53;;;16.83;85.40
80128;BME280;69440;52.118;5.408;2023-05-07T08:55:47;101879.50;;;16.82;85.68
80128;BME280;69440;52.118;5.408;2023-05-07T08:58:14;101881.56;;;16.79;85.48
80128;BME280;69440;52.118;5.408;2023-05-07T09:00:41;101886.66;;;16.83;85.62
80128;BME280;69440;52.118;5.408;2023-05-07T09:03:08;101890.06;;;16.87;86.00
80128;BME280;69440;52.118;5.408;2023-05-07T09:05:35;101884.53;;;16.88;85.63
80128;BME280;69440;52.118;5.408;2023-05-07T09:08:02;101884.44;;;16.90;86.43
80128;BME280;69440;52.118;5.408;2023-05-07T09:10:29;101883.66;;;16.88;86.15
80128;BME280;69440;52.118;5.408;2023-05-07T09:12:55;101879.09;;;16.88;86.55
80128;BME280;69440;52.118;5.408;2023-05-07T09:15:22;101880.63;;;16.92;85.39
80128;BME280;69440;52.118;5.408;2023-05-07T09:17:48;101873.91;;;16.98;85.83
80128;BME280;69440;52.118;5.408;2023-05-07T09:20:16;101877.47;;;16.98;85.22
80128;BME280;69440;52.118;5.408;2023-05-07T09:22:42;101877.91;;;17.05;85.48
80128;BME280;69440;52.118;5.408;2023-05-07T09:25:10;101881.72;;;17.02;84.36
80128;BME280;69440;52.118;5.408;2023-05-07T09:27:37;101889.53;;;17.07;84.84
80128;BME280;69440;52.118;5.408;2023-05-07T09:30:07;101893.25;;;17.06;84.07
80128;BME280;69440;52.118;5.408;2023-05-07T09:32:35;101890.75;;;17.03;84.52
80128;BME280;69440;52.118;5.408;2023-05-07T09:35:04;101883.13;;;17.08;84.49
80128;BME280;69440;52.118;5.408;2023-05-07T09:37:31;101876.09;;;17.18;85.00
80128;BME280;69440;52.118;5.408;2023-05-07T09:39:58;101886.44;;;17.26;85.09
80128;BME280;69440;52.118;5.408;2023-05-07T09:42:25;101882.19;;;17.34;84.61
80128;BME280;69440;52.118;5.408;2023-05-07T09:44:52;101882.06;;;17.36;83.47
80128;BME280;69440;52.118;5.408;2023-05-07T09:47:19;101884.47;;;17.41;83.81
80128;BME280;69440;52.118;5.408;2023-05-07T09:49:47;101892.09;;;17.48;84.17
80128;BME280;69440;52.118;5.408;2023-05-07T09:52:14;101894.47;;;17.53;83.06
80128;BME280;69440;52.118;5.408;2023-05-07T09:54:43;101893.50;;;17.54;82.15
80128;BME280;69440;52.118;5.408;2023-05-07T09:57:11;101892.84;;;17.63;83.09
80128;BME280;69440;52.118;5.408;2023-05-07T09:59:38;101889.34;;;17.61;82.89
80128;BME280;69440;52.118;5.408;2023-05-07T10:02:09;101893.94;;;17.73;82.24
80128;BME280;69440;52.118;5.408;2023-05-07T10:04:36;101900.59;;;17.82;81.87
80128;BME280;69440;52.118;5.408;2023-05-07T10:07:06;101898.69;;;17.95;81.66
80128;BME280;69440;52.118;5.408;2023-05-07T10:09:33;101897.81;;;18.07;82.48
80128;BME280;69440;52.118;5.408;2023-05-07T10:12:05;101904.25;;;18.06;80.67
80128;BME280;69440;52.118;5.408;2023-05-07T10:14:32;101909.97;;;18.14;80.25
80128;BME280;69440;52.118;5.408;2023-05-07T10:17:03;101905.47;;;18.26;81.82
80128;BME280;69440;52.118;5.408;2023-05-07T10:19:30;101901.41;;;18.31;81.35
80128;BME280;69440;52.118;5.408;2023-05-07T10:22:02;101899.16;;;18.25;80.24
80128;BME280;69440;52.118;5.408;2023-05-07T10:24:34;101905.38;;;18.27;81.09
80128;BME280;69440;52.118;5.408;2023-05-07T10:27:07;101908.28;;;18.37;81.03
80128;BME280;69440;52.118;5.408;2023-05-07T10:32:51;101898.13;;;18.76;80.41
80128;BME280;69440;52.118;5.408;2023-05-07T10:35:26;101893.69;;;18.86;79.17
80128;BME280;69440;52.118;5.408;2023-05-07T10:37:55;101887.81;;;19.03;78.25
80128;BME280;69440;52.118;5.408;2023-05-07T10:40:22;101887.84;;;19.14;77.34
80128;BME280;69440;52.118;5.408;2023-05-07T10:43:00;101888.53;;;19.51;77.49
80128;BME280;69440;52.118;5.408;2023-05-07T10:45:28;101889.19;;;19.77;77.22
80128;BME280;69440;52.118;5.408;2023-05-07T10:48:09;101884.31;;;20.14;76.00
80128;BME280;69440;52.118;5.408;2023-05-07T10:51:20;101887.66;;;20.52;73.26
80128;BME280;69440;52.118;5.408;2023-05-07T10:53:48;101889.81;;;20.69;72.98
80128;BME280;69440;52.118;5.408;2023-05-07T10:58:44;101889.16;;;20.76;73.43
80128;BME280;69440;52.118;5.408;2023-05-07T11:01:11;101886.53;;;20.75;72.01
80128;BME280;69440;52.118;5.408;2023-05-07T11:04:18;101887.81;;;20.71;72.55
80128;BME280;69440;52.118;5.408;2023-05-07T11:07:26;101879.41;;;20.63;72.10
80128;BME280;69440;52.118;5.408;2023-05-07T11:09:57;101882.41;;;20.49;71.03
80128;BME280;69440;52.118;5.408;2023-05-07T11:15:07;101879.09;;;20.34;72.76
80128;BME280;69440;52.118;5.408;2023-05-07T11:17:52;101890.13;;;20.32;71.64
80128;BME280;69440;52.118;5.408;2023-05-07T11:20:19;101889.66;;;20.27;71.32
80128;BME280;69440;52.118;5.408;2023-05-07T11:22:47;101889.88;;;20.46;73.35
80128;BME280;69440;52.118;5.408;2023-05-07T11:25:19;101894.97;;;20.51;71.13
80128;BME280;69440;52.118;5.408;2023-05-07T11:27:46;101898.25;;;20.66;72.00
80128;BME280;69440;52.118;5.408;2023-05-07T11:30:19;101900.59;;;20.70;70.41
80128;BME280;69440;52.118;5.408;2023-05-07T11:32:47;101896.59;;;20.74;71.64
80128;BME280;69440;52.118;5.408;2023-05-07T11:35:15;101894.44;;;20.89;71.87
80128;BME280;69440;52.118;5.408;2023-05-07T11:37:42;101893.50;;;21.32;72.25
80128;BME280;69440;52.118;5.408;2023-05-07T11:40:10;101893.69;;;21.70;70.32
80128;BME280;69440;52.118;5.408;2023-05-07T11:42:39;101893.22;;;21.96;68.50
80128;BME280;69440;52.118;5.408;2023-05-07T11:45:06;101890.91;;;21.91;69.05
80128;BME280;69440;52.118;5.408;2023-05-07T11:47:34;101891.59;;;21.74;67.67
80128;BME280;69440;52.118;5.408;2023-05-07T11:50:05;101891.59;;;21.74;68.35
80128;BME280;69440;52.118;5.408;2023-05-07T11:52:34;101896.97;;;21.64;68.01
80128;BME280;69440;52.118;5.408;2023-05-07T11:55:02;101893.06;;;21.57;68.42
80128;BME280;69440;52.118;5.408;2023-05-07T11:57:29;101894.38;;;21.63;69.52
80128;BME280;69440;52.118;5.408;2023-05-07T11:59:58;101886.28;;;21.52;68.66
80128;BME280;69440;52.118;5.408;2023-05-07T12:02:25;101895.13;;;21.65;68.13
80128;BME280;69440;52.118;5.408;2023-05-07T12:04:52;101897.50;;;21.79;67.30
80128;BME280;69440;52.118;5.408;2023-05-07T12:07:20;101890.19;;;21.89;68.29
80128;BME280;69440;52.118;5.408;2023-05-07T12:09:47;101887.31;;;22.21;67.06
80128;BME280;69440;52.118;5.408;2023-05-07T12:12:14;101888.41;;;22.69;67.47
80128;BME280;69440;52.118;5.408;2023-05-07T12:14:45;101894.88;;;23.35;65.38
80128;BME280;69440;52.118;5.408;2023-05-07T12:17:13;101879.38;;;24.00;64.50
80128;BME280;69440;52.118;5.408;2023-05-07T12:19:42;101881.41;;;24.53;61.90
80128;BME280;69440;52.118;5.408;2023-05-07T12:22:10;101882.75;;;24.85;59.64
80128;BME280;69440;52.118;5.408;2023-05-07T12:27:14;101878.00;;;24.95;58.68
80128;BME280;69440;52.118;5.408;2023-05-07T12:29:48;101874.69;;;24.73;57.69
80128;BME280;69440;52.118;5.408;2023-05-07T12:32:20;101884.84;;;24.55;58.56
80128;BME280;69440;52.118;5.408;2023-05-07T12:34:55;101876.81;;;24.44;57.26
80128;BME280;69440;52.118;5.408;2023-05-07T12:38:15;101880.06;;;24.57;57.21
80128;BME280;69440;52.118;5.408;2023-05-07T12:40:53;101873.94;;;24.81;56.10
80128;BME280;69440;52.118;5.408;2023-05-07T12:43:32;101876.28;;;25.12;56.14
80128;BME280;69440;52.118;5.408;2023-05-07T12:46:23;101883.28;;;25.06;56.91
80128;BME280;69440;52.118;5.408;2023-05-07T12:48:52;101878.56;;;25.16;52.89
80128;BME280;69440;52.118;5.408;2023-05-07T12:51:27;101877.16;;;25.12;52.70
80128;BME280;69440;52.118;5.408;2023-05-07T12:53:55;101876.13;;;25.39;54.63
80128;BME280;69440;52.118;5.408;2023-05-07T13:00:37;101883.44;;;24.69;55.25
80128;BME280;69440;52.118;5.408;2023-05-07T13:03:42;101890.19;;;24.57;55.07
80128;BME280;69440;52.118;5.408;2023-05-07T13:13:31;101891.19;;;24.73;54.80
80128;BME280;69440;52.118;5.408;2023-05-07T13:20:32;101882.81;;;24.57;52.88
80128;BME280;69440;52.118;5.408;2023-05-07T13:26:05;101893.72;;;23.84;55.84